sensor_id;sensor_type;location;lat;lon;timestamp;P1;durP1;ratioP1;P2;durP2;ratioP2
44446;SDS011;30152;52.066;5.358;2022-09-01T06:33:17;8.35;;;2.58;;
44446;SDS011;30152;52.066;5.358;2022-09-01T06:35:43;9.82;;;3.03;;
44446;SDS011;30152;52.066;5.358;2022-09-01T06:38:12;5.70;;;2.78;;
44446;SDS011;30152;52.066;5.358;2022-09-01T06:40:39;6.30;;;2.60;;
44446;SDS011;30152;52.066;5.358;2022-09-01T06:43:06;7.78;;;2.85;;
44446;SDS011;30152;52.066;5.358;2022-09-01T06:45:37;12.13;;;3.30;;
44446;SDS011;30152;52.066;5.358;2022-09-01T06:48:04;7.60;;;2.92;;
44446;SDS011;30152;52.066;5.358;2022-09-01T06:50:30;9.55;;;2.50;;
44446;SDS011;30152;52.066;5.358;2022-09-01T06:52:56;8.07;;;2.85;;
44446;SDS011;30152;52.066;5.358;2022-09-01T06:55:34;6.72;;;3.03;;
44446;SDS011;30152;52.066;5.358;2022-09-01T06:58:01;9.20;;;2.90;;
44446;SDS011;30152;52.066;5.358;2022-09-01T07:00:29;6.10;;;2.92;;
44446;SDS011;30152;52.066;5.358;2022-09-01T07:02:55;13.98;;;2.70;;
44446;SDS011;30152;52.066;5.358;2022-09-01T07:05:22;10.68;;;2.72;;
44446;SDS011;30152;52.066;5.358;2022-09-01T07:07:49;7.47;;;2.17;;
44446;SDS011;30152;52.066;5.358;2022-09-01T07:10:16;8.15;;;2.35;;
44446;SDS011;30152;52.066;5.358;2022-09-01T07:12:47;7.80;;;2.33;;
44446;SDS011;30152;52.066;5.358;2022-09-01T07:15:13;6.70;;;2.45;;
44446;SDS011;30152;52.066;5.358;2022-09-01T07:17:42;7.15;;;2.05;;
44446;SDS011;30152;52.066;5.358;2022-09-01T07:20:13;4.80;;;1.98;;
44446;SDS011;30152;52.066;5.358;2022-09-01T07:22:39;11.77;;;2.22;;
44446;SDS011;30152;52.066;5.358;2022-09-01T07:25:07;9.50;;;1.80;;
44446;SDS011;30152;52.066;5.358;2022-09-01T07:27:36;4.88;;;1.60;;
44446;SDS011;30152;52.066;5.358;2022-09-01T07:30:02;5.72;;;2.03;;
44446;SDS011;30152;52.066;5.358;2022-09-01T07:32:28;8.63;;;1.88;;
44446;SDS011;30152;52.066;5.358;2022-09-01T07:34:54;5.32;;;1.35;;
44446;SDS011;30152;52.066;5.358;2022-09-01T07:37:20;9.70;;;1.60;;
44446;SDS011;30152;52.066;5.358;2022-09-01T07:39:46;5.40;;;1.80;;
44446;SDS011;30152;52.066;5.358;2022-09-01T07:42:12;7.85;;;1.58;;
44446;SDS011;30152;52.066;5.358;2022-09-01T07:44:41;8.02;;;1.90;;
44446;SDS011;30152;52.066;5.358;2022-09-01T07:47:08;7.82;;;1.60;;
44446;SDS011;30152;52.066;5.358;2022-09-01T07:49:35;6.43;;;1.42;;
44446;SDS011;30152;52.066;5.358;2022-09-01T07:52:02;5.45;;;1.50;;
44446;SDS011;30152;52.066;5.358;2022-09-01T07:54:28;6.28;;;1.27;;
44446;SDS011;30152;52.066;5.358;2022-09-01T07:56:55;6.57;;;1.58;;
44446;SDS011;30152;52.066;5.358;2022-09-01T07:59:21;7.97;;;1.33;;
44446;SDS011;30152;52.066;5.358;2022-09-01T08:01:47;3.97;;;1.15;;
44446;SDS011;30152;52.066;5.358;2022-09-01T08:04:13;4.70;;;1.50;;
44446;SDS011;30152;52.066;5.358;2022-09-01T08:06:40;4.22;;;1.13;;
44446;SDS011;30152;52.066;5.358;2022-09-01T08:09:06;24.33;;;2.55;;
44446;SDS011;30152;52.066;5.358;2022-09-01T08:11:34;5.00;;;1.30;;
44446;SDS011;30152;52.066;5.358;2022-09-01T08:14:01;4.60;;;1.33;;
44446;SDS011;30152;52.066;5.358;2022-09-01T08:16:27;9.57;;;1.35;;
44446;SDS011;30152;52.066;5.358;2022-09-01T08:18:54;8.43;;;1.60;;
44446;SDS011;30152;52.066;5.358;2022-09-01T08:21:20;5.55;;;1.15;;
44446;SDS011;30152;52.066;5.358;2022-09-01T08:23:47;3.67;;;1.05;;
44446;SDS011;30152;52.066;5.358;2022-09-01T08:26:14;6.18;;;1.23;;
44446;SDS011;30152;52.066;5.358;2022-09-01T08:28:41;5.38;;;1.23;;
44446;SDS011;30152;52.066;5.358;2022-09-01T08:31:08;5.28;;;1.05;;
44446;SDS011;30152;52.066;5.358;2022-09-01T08:33:34;4.82;;;0.90;;
44446;SDS011;30152;52.066;5.358;2022-09-01T08:36:01;5.50;;;1.00;;
44446;SDS011;30152;52.066;5.358;2022-09-01T08:38:27;5.80;;;1.00;;
44446;SDS011;30152;52.066;5.358;2022-09-01T08:40:53;7.43;;;1.25;;
44446;SDS011;30152;52.066;5.358;2022-09-01T08:45:53;10.15;;;0.95;;
44446;SDS011;30152;52.066;5.358;2022-09-01T08:48:30;6.80;;;0.90;;
44446;SDS011;30152;52.066;5.358;2022-09-01T08:51:01;5.53;;;1.20;;
44446;SDS011;30152;52.066;5.358;2022-09-01T08:53:32;4.43;;;0.70;;
44446;SDS011;30152;52.066;5.358;2022-09-01T08:55:58;4.10;;;0.70;;
44446;SDS011;30152;52.066;5.358;2022-09-01T08:58:26;9.07;;;1.23;;
44446;SDS011;30152;52.066;5.358;2022-09-01T09:00:55;3.92;;;0.82;;
44446;SDS011;30152;52.066;5.358;2022-09-01T09:03:35;5.85;;;1.00;;
44446;SDS011;30152;52.066;5.358;2022-09-01T09:11:03;3.10;;;0.70;;
44446;SDS011;30152;52.066;5.358;2022-09-01T09:13:43;4.25;;;0.70;;
44446;SDS011;30152;52.066;5.358;2022-09-01T09:16:27;8.23;;;1.05;;
44446;SDS011;30152;52.066;5.358;2022-09-01T09:18:56;3.92;;;1.00;;
44446;SDS011;30152;52.066;5.358;2022-09-01T09:21:26;5.22;;;0.90;;
44446;SDS011;30152;52.066;5.358;2022-09-01T09:23:55;5.18;;;0.77;;
44446;SDS011;30152;52.066;5.358;2022-09-01T09:26:23;8.50;;;1.35;;
44446;SDS011;30152;52.066;5.358;2022-09-01T09:28:49;4.97;;;0.90;;
44446;SDS011;30152;52.066;5.358;2022-09-01T09:33:50;3.45;;;0.88;;
44446;SDS011;30152;52.066;5.358;2022-09-01T09:36:17;2.95;;;0.70;;
44446;SDS011;30152;52.066;5.358;2022-09-01T09:38:43;7.10;;;0.93;;
44446;SDS011;30152;52.066;5.358;2022-09-01T09:41:19;4.05;;;1.20;;
44446;SDS011;30152;52.066;5.358;2022-09-01T09:44:03;4.25;;;1.00;;
44446;SDS011;30152;52.066;5.358;2022-09-01T09:49:12;3.95;;;0.70;;
44446;SDS011;30152;52.066;5.358;2022-09-01T09:51:39;5.78;;;1.00;;
44446;SDS011;30152;52.066;5.358;2022-09-01T09:54:09;5.68;;;0.80;;
44446;SDS011;30152;52.066;5.358;2022-09-01T09:56:37;4.88;;;0.88;;
44446;SDS011;30152;52.066;5.358;2022-09-01T09:59:15;5.18;;;1.00;;
44446;SDS011;30152;52.066;5.358;2022-09-01T10:01:42;4.32;;;0.70;;
44446;SDS011;30152;52.066;5.358;2022-09-01T10:04:07;2.85;;;0.70;;
44446;SDS011;30152;52.066;5.358;2022-09-01T10:09:01;3.65;;;0.70;;
44446;SDS011;30152;52.066;5.358;2022-09-01T10:11:44;3.60;;;0.60;;
44446;SDS011;30152;52.066;5.358;2022-09-01T10:14:22;3.42;;;0.80;;
44446;SDS011;30152;52.066;5.358;2022-09-01T10:16:53;3.72;;;0.68;;
44446;SDS011;30152;52.066;5.358;2022-09-01T10:19:21;4.88;;;0.70;;
44446;SDS011;30152;52.066;5.358;2022-09-01T10:21:48;2.53;;;0.75;;
44446;SDS011;30152;52.066;5.358;2022-09-01T10:24:18;6.40;;;1.23;;
44446;SDS011;30152;52.066;5.358;2022-09-01T10:26:48;3.55;;;0.75;;
44446;SDS011;30152;52.066;5.358;2022-09-01T10:31:44;3.40;;;0.70;;
44446;SDS011;30152;52.066;5.358;2022-09-01T10:34:12;1.73;;;0.47;;
44446;SDS011;30152;52.066;5.358;2022-09-01T10:36:40;3.55;;;0.68;;
44446;SDS011;30152;52.066;5.358;2022-09-01T10:39:10;3.85;;;0.80;;
44446;SDS011;30152;52.066;5.358;2022-09-01T10:44:09;3.78;;;0.88;;
44446;SDS011;30152;52.066;5.358;2022-09-01T10:49:01;4.13;;;0.85;;
44446;SDS011;30152;52.066;5.358;2022-09-01T10:51:41;2.83;;;0.70;;
44446;SDS011;30152;52.066;5.358;2022-09-01T10:54:07;2.97;;;0.47;;
44446;SDS011;30152;52.066;5.358;2022-09-01T10:56:39;3.72;;;0.80;;
44446;SDS011;30152;52.066;5.358;2022-09-01T10:59:07;2.60;;;0.63;;
44446;SDS011;30152;52.066;5.358;2022-09-01T11:09:27;3.67;;;0.80;;
44446;SDS011;30152;52.066;5.358;2022-09-01T11:14:24;2.45;;;0.50;;
44446;SDS011;30152;52.066;5.358;2022-09-01T11:17:10;3.67;;;0.75;;
44446;SDS011;30152;52.066;5.358;2022-09-01T11:19:44;2.75;;;0.50;;
44446;SDS011;30152;52.066;5.358;2022-09-01T11:27:04;2.83;;;0.70;;
44446;SDS011;30152;52.066;5.358;2022-09-01T11:32:15;2.60;;;0.65;;
44446;SDS011;30152;52.066;5.358;2022-09-01T11:34:41;2.22;;;0.55;;
44446;SDS011;30152;52.066;5.358;2022-09-01T11:37:11;2.10;;;0.60;;
44446;SDS011;30152;52.066;5.358;2022-09-01T11:39:41;21.17;;;1.30;;
44446;SDS011;30152;52.066;5.358;2022-09-01T11:42:09;2.55;;;0.60;;
44446;SDS011;30152;52.066;5.358;2022-09-01T11:47:24;3.22;;;0.52;;
44446;SDS011;30152;52.066;5.358;2022-09-01T11:49:58;4.15;;;1.30;;
44446;SDS011;30152;52.066;5.358;2022-09-01T11:52:26;3.35;;;0.57;;
44446;SDS011;30152;52.066;5.358;2022-09-01T11:54:54;7.30;;;0.85;;
44446;SDS011;30152;52.066;5.358;2022-09-01T11:57:27;5.25;;;0.80;;
44446;SDS011;30152;52.066;5.358;2022-09-01T11:59:54;1.35;;;0.50;;
44446;SDS011;30152;52.066;5.358;2022-09-01T12:02:25;6.25;;;0.60;;
44446;SDS011;30152;52.066;5.358;2022-09-01T12:04:52;3.22;;;0.60;;
44446;SDS011;30152;52.066;5.358;2022-09-01T12:07:27;2.33;;;0.50;;
44446;SDS011;30152;52.066;5.358;2022-09-01T12:09:53;3.17;;;0.60;;
44446;SDS011;30152;52.066;5.358;2022-09-01T12:12:27;3.92;;;0.50;;
44446;SDS011;30152;52.066;5.358;2022-09-01T12:15:36;2.67;;;0.50;;
44446;SDS011;30152;52.066;5.358;2022-09-01T12:17:42;2.00;;;0.55;;
44446;SDS011;30152;52.066;5.358;2022-09-01T12:20:25;4.10;;;0.40;;
44446;SDS011;30152;52.066;5.358;2022-09-01T12:22:52;3.60;;;0.60;;
44446;SDS011;30152;52.066;5.358;2022-09-01T12:25:24;2.47;;;0.60;;
44446;SDS011;30152;52.066;5.358;2022-09-01T12:27:50;3.30;;;0.38;;
44446;SDS011;30152;52.066;5.358;2022-09-01T12:30:17;3.50;;;0.52;;
44446;SDS011;30152;52.066;5.358;2022-09-01T12:32:43;3.50;;;0.88;;
44446;SDS011;30152;52.066;5.358;2022-09-01T12:35:19;2.70;;;0.80;;
44446;SDS011;30152;52.066;5.358;2022-09-01T12:37:46;3.28;;;0.80;;
44446;SDS011;30152;52.066;5.358;2022-09-01T12:40:20;3.83;;;0.80;;
44446;SDS011;30152;52.066;5.358;2022-09-01T12:42:50;2.58;;;0.60;;
44446;SDS011;30152;52.066;5.358;2022-09-01T12:45:37;4.65;;;0.73;;
44446;SDS011;30152;52.066;5.358;2022-09-01T12:48:02;5.88;;;0.57;;
44446;SDS011;30152;52.066;5.358;2022-09-01T12:52:54;3.38;;;0.47;;
44446;SDS011;30152;52.066;5.358;2022-09-01T12:55:28;2.80;;;0.70;;
44446;SDS011;30152;52.066;5.358;2022-09-01T12:57:55;2.67;;;0.80;;
44446;SDS011;30152;52.066;5.358;2022-09-01T13:03:04;4.55;;;0.70;;
44446;SDS011;30152;52.066;5.358;2022-09-01T13:08:04;2.25;;;0.60;;
44446;SDS011;30152;52.066;5.358;2022-09-01T13:10:49;4.70;;;0.70;;
44446;SDS011;30152;52.066;5.358;2022-09-01T13:13:17;2.40;;;0.52;;
44446;SDS011;30152;52.066;5.358;2022-09-01T13:15:44;2.17;;;0.77;;
44446;SDS011;30152;52.066;5.358;2022-09-01T13:18:12;5.75;;;1.00;;
44446;SDS011;30152;52.066;5.358;2022-09-01T13:20:38;5.50;;;0.80;;
44446;SDS011;30152;52.066;5.358;2022-09-01T13:23:05;2.95;;;0.70;;
44446;SDS011;30152;52.066;5.358;2022-09-01T13:25:31;4.57;;;0.60;;
44446;SDS011;30152;52.066;5.358;2022-09-01T13:27:57;2.30;;;0.60;;
44446;SDS011;30152;52.066;5.358;2022-09-01T13:30:26;4.97;;;1.00;;
44446;SDS011;30152;52.066;5.358;2022-09-01T13:32:53;3.47;;;0.75;;
44446;SDS011;30152;52.066;5.358;2022-09-01T13:35:20;3.08;;;0.70;;
44446;SDS011;30152;52.066;5.358;2022-09-01T13:37:46;3.33;;;0.73;;
44446;SDS011;30152;52.066;5.358;2022-09-01T13:40:13;5.45;;;0.60;;
44446;SDS011;30152;52.066;5.358;2022-09-01T13:42:41;2.85;;;0.70;;
44446;SDS011;30152;52.066;5.358;2022-09-01T13:45:08;5.55;;;0.70;;
44446;SDS011;30152;52.066;5.358;2022-09-01T13:47:36;7.03;;;1.70;;
44446;SDS011;30152;52.066;5.358;2022-09-01T13:50:03;5.65;;;0.93;;
44446;SDS011;30152;52.066;5.358;2022-09-01T13:52:29;5.65;;;0.85;;
44446;SDS011;30152;52.066;5.358;2022-09-01T13:54:55;3.67;;;0.63;;
44446;SDS011;30152;52.066;5.358;2022-09-01T13:57:21;5.53;;;0.80;;
44446;SDS011;30152;52.066;5.358;2022-09-01T13:59:47;3.38;;;0.63;;
44446;SDS011;30152;52.066;5.358;2022-09-01T14:02:13;2.38;;;0.50;;
44446;SDS011;30152;52.066;5.358;2022-09-01T14:04:39;4.57;;;0.88;;
44446;SDS011;30152;52.066;5.358;2022-09-01T14:07:05;2.80;;;0.55;;
44446;SDS011;30152;52.066;5.358;2022-09-01T14:09:31;5.35;;;0.80;;
44446;SDS011;30152;52.066;5.358;2022-09-01T14:11:58;3.80;;;0.55;;
44446;SDS011;30152;52.066;5.358;2022-09-01T14:14:24;3.65;;;0.50;;
44446;SDS011;30152;52.066;5.358;2022-09-01T14:16:50;4.45;;;0.63;;
44446;SDS011;30152;52.066;5.358;2022-09-01T14:19:16;2.63;;;0.55;;
44446;SDS011;30152;52.066;5.358;2022-09-01T14:21:43;2.90;;;0.82;;
44446;SDS011;30152;52.066;5.358;2022-09-01T14:24:08;3.17;;;0.70;;
44446;SDS011;30152;52.066;5.358;2022-09-01T14:26:34;4.53;;;0.60;;
44446;SDS011;30152;52.066;5.358;2022-09-01T14:29:00;6.80;;;0.93;;
44446;SDS011;30152;52.066;5.358;2022-09-01T14:31:27;3.10;;;0.68;;
44446;SDS011;30152;52.066;5.358;2022-09-01T14:33:54;3.28;;;0.70;;
44446;SDS011;30152;52.066;5.358;2022-09-01T14:36:23;3.15;;;0.85;;
44446;SDS011;30152;52.066;5.358;2022-09-01T14:38:50;4.20;;;0.68;;
44446;SDS011;30152;52.066;5.358;2022-09-01T14:41:17;5.25;;;0.75;;
44446;SDS011;30152;52.066;5.358;2022-09-01T14:43:45;5.80;;;0.70;;
44446;SDS011;30152;52.066;5.358;2022-09-01T14:46:12;6.40;;;0.70;;
44446;SDS011;30152;52.066;5.358;2022-09-01T14:48:39;3.65;;;0.90;;
44446;SDS011;30152;52.066;5.358;2022-09-01T14:51:05;1.80;;;0.47;;
44446;SDS011;30152;52.066;5.358;2022-09-01T14:53:32;3.97;;;0.65;;
44446;SDS011;30152;52.066;5.358;2022-09-01T14:55:59;2.42;;;0.50;;
44446;SDS011;30152;52.066;5.358;2022-09-01T14:58:26;4.20;;;0.63;;
44446;SDS011;30152;52.066;5.358;2022-09-01T15:00:52;3.50;;;0.70;;
44446;SDS011;30152;52.066;5.358;2022-09-01T15:03:22;4.85;;;0.88;;
44446;SDS011;30152;52.066;5.358;2022-09-01T15:05:49;2.42;;;0.75;;
44446;SDS011;30152;52.066;5.358;2022-09-01T15:08:15;4.88;;;0.80;;
44446;SDS011;30152;52.066;5.358;2022-09-01T15:10:41;2.45;;;0.80;;
44446;SDS011;30152;52.066;5.358;2022-09-01T15:13:07;4.03;;;0.70;;
44446;SDS011;30152;52.066;5.358;2022-09-01T15:15:34;4.50;;;0.80;;
44446;SDS011;30152;52.066;5.358;2022-09-01T15:18:00;4.28;;;0.57;;
44446;SDS011;30152;52.066;5.358;2022-09-01T15:20:28;3.22;;;0.90;;
44446;SDS011;30152;52.066;5.358;2022-09-01T15:23:27;3.08;;;0.70;;
44446;SDS011;30152;52.066;5.358;2022-09-01T15:25:54;3.40;;;0.70;;
44446;SDS011;30152;52.066;5.358;2022-09-01T15:28:21;4.60;;;0.60;;
44446;SDS011;30152;52.066;5.358;2022-09-01T15:30:47;4.50;;;0.80;;
44446;SDS011;30152;52.066;5.358;2022-09-01T15:33:14;5.90;;;0.80;;
44446;SDS011;30152;52.066;5.358;2022-09-01T15:35:40;5.50;;;0.77;;
44446;SDS011;30152;52.066;5.358;2022-09-01T15:38:06;1.73;;;0.60;;
44446;SDS011;30152;52.066;5.358;2022-09-01T15:40:32;2.58;;;0.65;;
44446;SDS011;30152;52.066;5.358;2022-09-01T15:42:58;4.38;;;0.70;;
44446;SDS011;30152;52.066;5.358;2022-09-01T15:45:25;4.03;;;0.70;;
44446;SDS011;30152;52.066;5.358;2022-09-01T15:47:52;6.30;;;1.13;;
44446;SDS011;30152;52.066;5.358;2022-09-01T15:50:19;3.55;;;0.55;;
44446;SDS011;30152;52.066;5.358;2022-09-01T15:52:56;2.45;;;0.50;;
44446;SDS011;30152;52.066;5.358;2022-09-01T15:55:24;3.40;;;0.70;;
44446;SDS011;30152;52.066;5.358;2022-09-01T15:57:50;3.55;;;0.77;;
44446;SDS011;30152;52.066;5.358;2022-09-01T16:00:18;2.95;;;0.47;;
44446;SDS011;30152;52.066;5.358;2022-09-01T16:02:44;4.70;;;0.85;;
44446;SDS011;30152;52.066;5.358;2022-09-01T16:05:10;1.58;;;0.40;;
44446;SDS011;30152;52.066;5.358;2022-09-01T16:07:36;7.22;;;0.70;;
44446;SDS011;30152;52.066;5.358;2022-09-01T16:10:03;4.10;;;0.60;;
44446;SDS011;30152;52.066;5.358;2022-09-01T16:12:30;5.40;;;0.73;;
44446;SDS011;30152;52.066;5.358;2022-09-01T16:14:56;5.93;;;0.80;;
44446;SDS011;30152;52.066;5.358;2022-09-01T16:20:09;2.88;;;0.77;;
44446;SDS011;30152;52.066;5.358;2022-09-01T16:22:44;4.65;;;0.85;;
44446;SDS011;30152;52.066;5.358;2022-09-01T16:25:14;4.20;;;0.70;;
44446;SDS011;30152;52.066;5.358;2022-09-01T16:27:42;6.15;;;1.00;;
44446;SDS011;30152;52.066;5.358;2022-09-01T16:30:10;3.08;;;0.65;;
44446;SDS011;30152;52.066;5.358;2022-09-01T16:32:37;3.15;;;0.90;;
44446;SDS011;30152;52.066;5.358;2022-09-01T16:35:03;6.35;;;0.93;;
44446;SDS011;30152;52.066;5.358;2022-09-01T16:42:38;2.83;;;0.60;;
44446;SDS011;30152;52.066;5.358;2022-09-01T16:48:02;4.35;;;0.82;;
44446;SDS011;30152;52.066;5.358;2022-09-01T16:56:04;4.85;;;0.93;;
44446;SDS011;30152;52.066;5.358;2022-09-01T17:01:11;3.15;;;1.38;;
44446;SDS011;30152;52.066;5.358;2022-09-01T17:04:24;3.35;;;1.38;;
44446;SDS011;30152;52.066;5.358;2022-09-01T17:08:51;4.68;;;1.33;;
44446;SDS011;30152;52.066;5.358;2022-09-01T17:13:49;4.97;;;0.80;;
44446;SDS011;30152;52.066;5.358;2022-09-01T17:16:31;3.55;;;1.08;;
44446;SDS011;30152;52.066;5.358;2022-09-01T17:19:06;4.70;;;1.20;;
44446;SDS011;30152;52.066;5.358;2022-09-01T17:21:35;5.35;;;1.10;;
44446;SDS011;30152;52.066;5.358;2022-09-01T17:26:48;2.95;;;1.15;;
44446;SDS011;30152;52.066;5.358;2022-09-01T17:34:43;7.88;;;1.23;;
44446;SDS011;30152;52.066;5.358;2022-09-01T17:42:29;4.65;;;0.90;;
44446;SDS011;30152;52.066;5.358;2022-09-01T17:50:52;5.63;;;1.00;;
44446;SDS011;30152;52.066;5.358;2022-09-01T17:53:13;2.22;;;0.77;;
44446;SDS011;30152;52.066;5.358;2022-09-01T17:55:45;4.32;;;1.13;;
44446;SDS011;30152;52.066;5.358;2022-09-01T18:03:43;6.38;;;0.93;;
44446;SDS011;30152;52.066;5.358;2022-09-01T18:06:14;4.85;;;0.95;;
44446;SDS011;30152;52.066;5.358;2022-09-01T18:08:44;3.88;;;1.00;;
44446;SDS011;30152;52.066;5.358;2022-09-01T18:16:17;4.28;;;1.38;;
44446;SDS011;30152;52.066;5.358;2022-09-01T18:18:44;6.22;;;1.20;;
44446;SDS011;30152;52.066;5.358;2022-09-01T18:21:16;5.43;;;0.98;;
44446;SDS011;30152;52.066;5.358;2022-09-01T18:23:44;5.55;;;1.45;;
44446;SDS011;30152;52.066;5.358;2022-09-01T18:26:16;5.47;;;1.50;;
44446;SDS011;30152;52.066;5.358;2022-09-01T18:28:43;5.45;;;1.50;;
44446;SDS011;30152;52.066;5.358;2022-09-01T18:36:24;6.35;;;0.80;;
44446;SDS011;30152;52.066;5.358;2022-09-01T18:39:01;5.72;;;1.00;;
44446;SDS011;30152;52.066;5.358;2022-09-01T18:41:47;5.28;;;1.23;;
44446;SDS011;30152;52.066;5.358;2022-09-01T18:46:56;4.72;;;1.05;;
44446;SDS011;30152;52.066;5.358;2022-09-01T18:54:59;7.30;;;1.50;;
44446;SDS011;30152;52.066;5.358;2022-09-01T18:57:34;5.10;;;1.10;;
44446;SDS011;30152;52.066;5.358;2022-09-01T19:00:04;3.53;;;0.90;;
44446;SDS011;30152;52.066;5.358;2022-09-01T19:05:02;4.10;;;0.98;;
44446;SDS011;30152;52.066;5.358;2022-09-01T19:10:17;4.47;;;1.20;;
44446;SDS011;30152;52.066;5.358;2022-09-01T19:12:53;4.50;;;1.40;;
44446;SDS011;30152;52.066;5.358;2022-09-01T19:25:48;3.22;;;0.90;;
44446;SDS011;30152;52.066;5.358;2022-09-01T19:30:52;8.32;;;1.52;;
44446;SDS011;30152;52.066;5.358;2022-09-01T19:33:21;4.07;;;1.10;;
44446;SDS011;30152;52.066;5.358;2022-09-01T19:35:50;5.80;;;1.25;;
44446;SDS011;30152;52.066;5.358;2022-09-01T19:38:18;8.25;;;1.40;;
44446;SDS011;30152;52.066;5.358;2022-09-01T19:40:44;6.20;;;1.35;;
44446;SDS011;30152;52.066;5.358;2022-09-01T19:43:13;5.53;;;1.10;;
44446;SDS011;30152;52.066;5.358;2022-09-01T19:48:21;8.20;;;1.50;;
44446;SDS011;30152;52.066;5.358;2022-09-01T19:53:33;3.88;;;1.30;;
44446;SDS011;30152;52.066;5.358;2022-09-01T19:58:43;6.72;;;1.73;;
44446;SDS011;30152;52.066;5.358;2022-09-01T20:01:11;6.47;;;1.42;;
44446;SDS011;30152;52.066;5.358;2022-09-01T20:03:44;5.82;;;1.75;;
44446;SDS011;30152;52.066;5.358;2022-09-01T20:17:04;7.65;;;1.30;;
44446;SDS011;30152;52.066;5.358;2022-09-01T20:19:36;5.72;;;1.40;;
44446;SDS011;30152;52.066;5.358;2022-09-01T20:22:17;8.25;;;1.45;;
44446;SDS011;30152;52.066;5.358;2022-09-01T20:24:45;8.73;;;1.25;;
44446;SDS011;30152;52.066;5.358;2022-09-01T20:27:31;6.32;;;1.17;;
44446;SDS011;30152;52.066;5.358;2022-09-01T20:30:03;3.90;;;1.10;;
44446;SDS011;30152;52.066;5.358;2022-09-01T20:35:17;4.25;;;1.20;;
44446;SDS011;30152;52.066;5.358;2022-09-01T20:37:45;4.82;;;1.30;;
44446;SDS011;30152;52.066;5.358;2022-09-01T20:40:53;9.20;;;1.70;;
44446;SDS011;30152;52.066;5.358;2022-09-01T20:43:10;6.93;;;1.38;;
44446;SDS011;30152;52.066;5.358;2022-09-01T20:45:38;6.22;;;1.40;;
44446;SDS011;30152;52.066;5.358;2022-09-01T20:48:06;7.57;;;1.50;;
44446;SDS011;30152;52.066;5.358;2022-09-01T20:55:51;3.95;;;1.63;;
44446;SDS011;30152;52.066;5.358;2022-09-01T21:00:57;7.07;;;1.85;;
44446;SDS011;30152;52.066;5.358;2022-09-01T21:09:02;4.85;;;1.30;;
44446;SDS011;30152;52.066;5.358;2022-09-01T21:11:35;4.93;;;1.58;;
44446;SDS011;30152;52.066;5.358;2022-09-01T21:22:04;5.05;;;1.20;;
44446;SDS011;30152;52.066;5.358;2022-09-01T21:24:30;4.65;;;1.30;;
